createdAt,value
2022-12-15T00:01:31.191Z,0
2022-12-15T00:06:31.610Z,0
2022-12-15T00:11:31.233Z,0
2022-12-15T00:16:31.417Z,0
2022-12-15T00:21:31.206Z,0
2022-12-15T00:26:31.195Z,0
2022-12-15T00:31:31.245Z,0
2022-12-15T00:36:31.197Z,0
2022-12-15T00:41:31.208Z,0
2022-12-15T00:46:31.230Z,0
2022-12-15T00:51:31.187Z,0
2022-12-15T00:56:31.354Z,0
2022-12-15T01:01:31.269Z,0
2022-12-15T01:06:31.165Z,0
2022-12-15T01:11:31.162Z,0
2022-12-15T01:16:31.215Z,0
2022-12-15T01:21:31.155Z,0
2022-12-15T01:26:31.161Z,0
2022-12-15T01:31:31.197Z,0
2022-12-15T01:36:31.252Z,0
2022-12-15T01:41:31.100Z,0
2022-12-15T01:46:31.167Z,0
2022-12-15T01:51:31.124Z,0
2022-12-15T01:56:35.476Z,0
2022-12-15T02:01:31.217Z,0
2022-12-15T02:06:31.126Z,0
2022-12-15T02:11:31.077Z,0
2022-12-15T02:16:31.160Z,0
2022-12-15T02:21:31.127Z,0
2022-12-15T02:26:31.117Z,0
2022-12-15T02:31:31.128Z,0
2022-12-15T02:36:31.119Z,0
2022-12-15T02:41:31.074Z,0
2022-12-15T02:46:31.078Z,0
2022-12-15T02:51:31.075Z,0
2022-12-15T02:56:31.480Z,0
2022-12-15T03:01:31.164Z,0
2022-12-15T03:06:31.050Z,0
2022-12-15T03:11:31.080Z,0
2022-12-15T03:16:31.120Z,0
2022-12-15T03:21:31.054Z,0
2022-12-15T03:26:31.040Z,0
2022-12-15T03:31:31.127Z,0
2022-12-15T03:36:31.096Z,0
2022-12-15T03:41:31.016Z,0
2022-12-15T03:46:31.124Z,0
2022-12-15T03:51:31.018Z,0
2022-12-15T03:56:31.061Z,0
2022-12-15T04:01:31.183Z,0
2022-12-15T04:06:31.024Z,0
2022-12-15T04:11:31.029Z,0
2022-12-15T04:16:31.126Z,0
2022-12-15T04:21:31.022Z,0
2022-12-15T04:26:31.045Z,0
2022-12-15T04:31:31.042Z,0
2022-12-15T04:36:31.030Z,0
2022-12-15T04:41:30.975Z,0
2022-12-15T04:46:31.027Z,0
2022-12-15T04:51:30.993Z,0
2022-12-15T04:56:31.014Z,0
2022-12-15T05:01:31.144Z,0
2022-12-15T05:06:30.978Z,0
2022-12-15T05:11:30.970Z,0
2022-12-15T05:16:31.012Z,0
2022-12-15T05:21:30.984Z,0
2022-12-15T05:26:30.942Z,0
2022-12-15T05:31:31.024Z,0
2022-12-15T05:36:30.959Z,0
2022-12-15T05:41:30.985Z,0
2022-12-15T05:46:31.042Z,0
2022-12-15T05:51:30.946Z,0
2022-12-15T05:56:31.081Z,0
2022-12-15T06:01:30.963Z,0
2022-12-15T06:06:30.954Z,0
2022-12-15T06:11:30.917Z,0
2022-12-15T06:16:31.117Z,0
2022-12-15T06:21:30.955Z,0
2022-12-15T06:26:30.947Z,0
2022-12-15T06:31:31.030Z,0
2022-12-15T06:36:31.192Z,0
2022-12-15T06:41:31.189Z,0
2022-12-15T06:46:31.474Z,0
2022-12-15T06:51:31.364Z,0
2022-12-15T06:56:33.830Z,0
2022-12-15T07:01:31.544Z,0
2022-12-15T07:06:31.390Z,0
2022-12-15T07:11:31.359Z,0
2022-12-15T07:16:31.780Z,0
2022-12-15T07:21:31.648Z,0
2022-12-15T07:26:31.633Z,0
2022-12-15T07:31:31.721Z,2
2022-12-15T07:36:31.661Z,4
2022-12-15T07:41:31.622Z,8
2022-12-15T07:46:31.668Z,7
2022-12-15T07:51:31.599Z,13
2022-12-15T07:56:35.900Z,8
2022-12-15T08:01:31.932Z,12
2022-12-15T08:06:31.670Z,12
2022-12-15T08:11:31.583Z,16
2022-12-15T08:16:31.763Z,16
2022-12-15T08:21:31.586Z,16
2022-12-15T08:26:31.863Z,17
2022-12-15T08:31:31.602Z,19
2022-12-15T08:36:31.634Z,19
2022-12-15T08:41:31.576Z,22
2022-12-15T08:46:31.650Z,26
2022-12-15T08:51:31.579Z,34
2022-12-15T08:56:31.628Z,164
2022-12-15T09:01:32.095Z,218
2022-12-15T09:06:31.799Z,230
2022-12-15T09:11:31.805Z,236
2022-12-15T09:16:31.900Z,227
2022-12-15T09:21:31.817Z,232
2022-12-15T09:26:31.795Z,170
2022-12-15T09:31:31.824Z,135
2022-12-15T09:36:31.831Z,95
2022-12-15T09:41:31.798Z,37
2022-12-15T09:46:31.844Z,37
2022-12-15T09:51:31.799Z,46
2022-12-15T09:56:31.820Z,92
2022-12-15T10:01:31.895Z,152
2022-12-15T10:06:33.443Z,112
2022-12-15T10:11:31.804Z,38
2022-12-15T10:16:31.807Z,36
2022-12-15T10:21:31.774Z,38
2022-12-15T10:26:31.791Z,38
2022-12-15T10:31:32.331Z,40
2022-12-15T10:36:32.310Z,38
2022-12-15T10:41:32.274Z,40
2022-12-15T10:46:32.387Z,40
2022-12-15T10:51:32.257Z,41
2022-12-15T10:56:33.817Z,40
2022-12-15T11:01:32.334Z,34
2022-12-15T11:06:32.356Z,41
2022-12-15T11:11:32.979Z,40
2022-12-15T11:16:32.871Z,40
2022-12-15T11:21:32.903Z,40
2022-12-15T11:26:32.870Z,42
2022-12-15T11:31:32.846Z,41
2022-12-15T11:36:32.913Z,41
2022-12-15T11:41:32.848Z,40
2022-12-15T11:46:32.860Z,42
2022-12-15T11:51:32.866Z,41
2022-12-15T11:56:33.068Z,41
2022-12-15T12:01:32.876Z,38
2022-12-15T12:06:32.867Z,37
2022-12-15T12:11:33.479Z,37
2022-12-15T12:16:33.076Z,36
2022-12-15T12:21:33.096Z,38
2022-12-15T12:26:33.062Z,38
2022-12-15T12:31:33.047Z,113
2022-12-15T12:36:33.086Z,167
2022-12-15T12:41:33.075Z,165
2022-12-15T12:46:33.042Z,237
2022-12-15T12:51:33.065Z,281
2022-12-15T12:56:33.072Z,282
2022-12-15T13:01:33.220Z,297
2022-12-15T13:06:33.047Z,298
2022-12-15T13:11:33.305Z,272
2022-12-15T13:16:33.355Z,260
2022-12-15T13:21:33.262Z,169
2022-12-15T13:26:33.267Z,78
2022-12-15T13:31:33.381Z,28
2022-12-15T13:36:33.360Z,27
2022-12-15T13:41:33.548Z,25
2022-12-15T13:46:33.813Z,22
2022-12-15T13:51:34.472Z,23
2022-12-15T13:56:34.481Z,26
2022-12-15T14:01:34.538Z,88
2022-12-15T14:06:34.492Z,129
2022-12-15T14:11:52.288Z,138
2022-12-15T14:16:34.524Z,123
2022-12-15T14:21:34.464Z,96
2022-12-15T14:26:34.469Z,54
2022-12-15T14:31:34.531Z,33
2022-12-15T14:36:34.516Z,36
2022-12-15T14:41:34.430Z,37
2022-12-15T14:46:34.478Z,24
2022-12-15T14:51:34.434Z,18
2022-12-15T14:56:34.432Z,7
2022-12-15T15:01:34.511Z,3
2022-12-15T15:06:34.427Z,2
2022-12-15T15:11:34.429Z,0
2022-12-15T15:16:34.525Z,0
2022-12-15T15:21:34.425Z,0
2022-12-15T15:26:34.977Z,0
2022-12-15T15:31:40.693Z,0
2022-12-15T15:36:34.968Z,0
2022-12-15T15:41:34.948Z,0
2022-12-15T15:46:34.978Z,0
2022-12-15T15:51:34.926Z,0
2022-12-15T15:56:34.946Z,0
2022-12-15T16:01:34.976Z,0
2022-12-15T16:06:34.916Z,0
2022-12-15T16:11:35.805Z,0
2022-12-15T16:16:35.893Z,0
2022-12-15T16:21:35.793Z,0
2022-12-15T16:26:35.818Z,0
2022-12-15T16:31:41.140Z,0
2022-12-15T16:36:35.808Z,0
2022-12-15T16:41:35.791Z,0
2022-12-15T16:46:35.812Z,0
2022-12-15T16:51:35.764Z,0
2022-12-15T16:56:35.806Z,0
2022-12-15T17:01:39.991Z,0
2022-12-15T17:06:35.792Z,0
2022-12-15T17:11:37.524Z,0
2022-12-15T17:16:37.534Z,0
2022-12-15T17:21:37.526Z,0
2022-12-15T17:26:37.567Z,0
2022-12-15T17:31:37.572Z,0
2022-12-15T17:36:37.479Z,0
2022-12-15T17:41:59.687Z,0
2022-12-15T17:46:37.549Z,0
2022-12-15T17:51:37.709Z,0
2022-12-15T17:56:37.770Z,0
2022-12-15T18:01:37.857Z,0
2022-12-15T18:06:37.721Z,0
2022-12-15T18:11:37.717Z,0
2022-12-15T18:16:37.779Z,0
2022-12-15T18:21:37.699Z,0
2022-12-15T18:26:37.724Z,0
2022-12-15T18:31:37.814Z,0
2022-12-15T18:36:37.698Z,0
2022-12-15T18:41:37.732Z,0
2022-12-15T18:46:37.704Z,0
2022-12-15T18:51:37.704Z,0
2022-12-15T18:56:37.710Z,0
2022-12-15T19:01:37.904Z,0
2022-12-15T19:06:37.844Z,0
2022-12-15T19:11:37.679Z,0
2022-12-15T19:16:37.720Z,0
2022-12-15T19:21:37.662Z,0
2022-12-15T19:26:37.634Z,0
2022-12-15T19:31:37.745Z,0
2022-12-15T19:36:37.668Z,0
2022-12-15T19:41:37.778Z,0
2022-12-15T19:46:37.638Z,0
2022-12-15T19:51:37.705Z,0
2022-12-15T19:56:37.675Z,0
2022-12-15T20:01:38.017Z,0
2022-12-15T20:06:38.168Z,0
2022-12-15T20:11:38.215Z,0
2022-12-15T20:16:38.228Z,0
2022-12-15T20:21:38.135Z,0
2022-12-15T20:26:38.115Z,0
2022-12-15T20:31:38.203Z,0
2022-12-15T20:36:38.181Z,0
2022-12-15T20:41:38.159Z,0
2022-12-15T20:46:38.206Z,0
2022-12-15T20:51:38.094Z,0
2022-12-15T20:56:38.192Z,0
2022-12-15T21:01:38.216Z,0
2022-12-15T21:06:38.115Z,0
2022-12-15T21:11:38.083Z,0
2022-12-15T21:16:38.294Z,0
2022-12-15T21:21:38.108Z,0
2022-12-15T21:26:38.111Z,0
2022-12-15T21:31:38.083Z,0
2022-12-15T21:36:38.172Z,0
2022-12-15T21:41:38.097Z,0
2022-12-15T21:46:38.114Z,0
2022-12-15T21:51:38.064Z,0
2022-12-15T21:56:39.168Z,0
2022-12-15T22:01:39.268Z,0
2022-12-15T22:06:39.137Z,0
2022-12-15T22:11:39.146Z,0
2022-12-15T22:16:39.264Z,0
2022-12-15T22:21:39.158Z,0
2022-12-15T22:26:39.119Z,0
2022-12-15T22:31:40.009Z,0
2022-12-15T22:36:40.015Z,0
2022-12-15T22:41:40.288Z,0
2022-12-15T22:46:40.275Z,0
2022-12-15T22:51:40.269Z,0
2022-12-15T22:56:40.537Z,0
2022-12-15T23:01:40.551Z,0
2022-12-15T23:06:40.470Z,0
2022-12-15T23:11:40.524Z,0
2022-12-15T23:16:40.508Z,0
2022-12-15T23:21:40.455Z,0
2022-12-15T23:26:40.526Z,0
2022-12-15T23:31:40.579Z,0
2022-12-15T23:36:40.547Z,0
2022-12-15T23:41:40.445Z,0
2022-12-15T23:46:40.511Z,0
2022-12-15T23:51:40.467Z,0
2022-12-15T23:56:40.463Z,0
